KBBB

Details ICAO KBBB
Name BENSON MUNI
Region United States
Timezone America/Chicago (UTC-6.0)
Plans Departing 0
Arriving 0
Stats Elevation 1,039 ft / 317 m (AMSL)
Location 45.331930° -95.650567°
Runways 1
Magnetic Variation 2.114° E
Sunrise 2017-12-14 13:56:05 UTC / 2017-12-14 07:56:05 Local
Sunset 2017-12-14 22:41:31 UTC / 2017-12-14 16:41:31 Local
Advertisement - Login to hide

Runways

ID Width Length Bearing (true) Bearing (mag) Surface Threshold Offset Overrun Length
14 75 ft / 23 m 4,000 ft / 1,219 m 143.61° 141.50° Asphalt 0 ft / 0 m 0 ft / 0 m
32 75 ft / 23 m 4,000 ft / 1,219 m 323.61° 321.50° Asphalt 0 ft / 0 m 0 ft / 0 m

Map

Weather


0- 5 10 15 20 25 30 35+ Temperature / ° C

Clouds and Precipitation
Forecast for 2017-12-15 00:00 UTC. Updated 10 minutes ago

Ground ~20,000 ft ~40,000 ft Winds

METAR

KBBB 141935Z AUTO 01008KT 10SM SCT019 OVC031 M04/M08 A3006 RMK AO2

TAF

Not found

Frequencies

Unicom 122.80 MHz CTAF/UNICOM
Warning: Do not use this data for real-world aviation or navigation. No guarantee of current accuracy is given.